createdAt,value
2019-03-05T00:00:32.916Z,4.60
2019-03-05T00:01:32.843Z,4.60
2019-03-05T00:02:32.779Z,5.00
2019-03-05T00:03:32.709Z,5.00
2019-03-05T00:04:32.645Z,4.70
2019-03-05T00:05:32.579Z,4.80
2019-03-05T00:06:32.501Z,5.00
2019-03-05T00:07:32.423Z,4.40
2019-03-05T00:08:32.368Z,4.60
2019-03-05T00:09:32.299Z,5.20
2019-03-05T00:10:32.227Z,4.90
2019-03-05T00:11:32.162Z,5.20
2019-03-05T00:12:32.073Z,5.10
2019-03-05T00:13:32.005Z,4.70
2019-03-05T00:14:31.933Z,5.00
2019-03-05T00:15:31.887Z,4.40
2019-03-05T00:16:31.807Z,4.20
2019-03-05T00:17:31.735Z,4.60
2019-03-05T00:18:31.668Z,4.10
2019-03-05T00:19:31.598Z,4.30
2019-03-05T00:20:31.518Z,4.50
2019-03-05T00:21:31.443Z,4.30
2019-03-05T00:22:31.385Z,4.30
2019-03-05T00:23:31.320Z,4.50
2019-03-05T00:24:31.233Z,4.40
2019-03-05T00:25:31.167Z,4.60
2019-03-05T00:26:31.098Z,4.90
2019-03-05T00:27:31.022Z,4.50
2019-03-05T00:28:30.971Z,4.60
2019-03-05T00:29:30.926Z,4.60
2019-03-05T00:30:30.833Z,4.50
2019-03-05T00:31:30.760Z,4.80
2019-03-05T00:32:30.673Z,4.50
2019-03-05T00:33:32.666Z,4.60
2019-03-05T00:34:30.536Z,4.50
2019-03-05T00:35:30.465Z,4.40
2019-03-05T00:36:30.410Z,4.60
2019-03-05T00:37:30.335Z,4.50
2019-03-05T00:38:30.257Z,4.20
2019-03-05T00:39:30.185Z,4.50
2019-03-05T00:40:30.126Z,4.60
2019-03-05T00:41:30.052Z,4.20
2019-03-05T00:42:29.993Z,5.00
2019-03-05T00:43:29.916Z,4.80
2019-03-05T00:44:29.858Z,4.90
2019-03-05T00:45:29.767Z,4.70
2019-03-05T00:46:29.704Z,4.20
2019-03-05T00:47:29.632Z,4.50
2019-03-05T00:48:29.555Z,4.80
2019-03-05T00:49:29.521Z,4.60
2019-03-05T00:50:29.411Z,4.60
2019-03-05T00:51:29.343Z,4.40
2019-03-05T00:52:29.317Z,4.20
2019-03-05T00:53:29.216Z,4.70
2019-03-05T00:54:29.137Z,4.70
2019-03-05T00:55:29.065Z,4.60
2019-03-05T00:56:29.005Z,4.80
2019-03-05T00:57:28.932Z,4.10
2019-03-05T00:58:28.869Z,4.40
2019-03-05T00:59:28.799Z,4.00
2019-03-05T01:00:28.717Z,4.60
2019-03-05T01:01:28.649Z,4.40
2019-03-05T01:02:28.575Z,4.40
2019-03-05T01:03:28.507Z,4.30
2019-03-05T01:04:28.494Z,4.40
2019-03-05T01:05:28.374Z,4.10
2019-03-05T01:06:28.302Z,4.40
2019-03-05T01:07:28.235Z,4.10
2019-03-05T01:08:28.155Z,4.40
2019-03-05T01:09:28.084Z,4.80
2019-03-05T01:10:28.027Z,5.20
2019-03-05T01:11:27.959Z,5.40
2019-03-05T01:12:27.917Z,5.00
2019-03-05T01:13:27.805Z,5.00
2019-03-05T01:14:27.735Z,5.40
2019-03-05T01:15:27.665Z,4.20
2019-03-05T01:16:27.608Z,5.00
2019-03-05T01:17:27.536Z,4.40
2019-03-05T01:18:27.457Z,4.50
2019-03-05T01:19:27.386Z,4.50
2019-03-05T01:20:27.327Z,4.80
2019-03-05T01:21:27.255Z,4.10
2019-03-05T01:22:27.186Z,4.90
2019-03-05T01:23:27.116Z,4.30
2019-03-05T01:24:27.035Z,4.30
2019-03-05T01:25:26.969Z,4.90
2019-03-05T01:26:26.912Z,4.60
2019-03-05T01:27:26.835Z,4.40
2019-03-05T01:28:26.755Z,4.20
2019-03-05T01:29:26.687Z,4.40
2019-03-05T01:30:26.616Z,4.70
2019-03-05T01:31:26.544Z,4.50
2019-03-05T01:32:26.486Z,4.00
2019-03-05T01:33:26.418Z,4.10
2019-03-05T01:34:26.350Z,4.30
2019-03-05T01:35:26.282Z,4.30
2019-03-05T01:36:26.202Z,4.50
2019-03-05T01:37:26.145Z,6.00
2019-03-05T01:38:26.059Z,5.10
2019-03-05T01:39:25.991Z,5.10
2019-03-05T01:40:25.926Z,5.40
2019-03-05T01:41:25.860Z,4.60
2019-03-05T01:42:25.779Z,5.80
2019-03-05T01:43:25.706Z,5.30
2019-03-05T01:44:25.653Z,5.40
2019-03-05T01:45:25.586Z,5.10
2019-03-05T01:46:25.515Z,5.00
2019-03-05T01:47:25.433Z,4.40
2019-03-05T01:48:25.375Z,4.40
2019-03-05T01:49:25.289Z,4.80
2019-03-05T01:50:25.238Z,4.90
2019-03-05T01:51:25.155Z,5.10
2019-03-05T01:52:25.077Z,4.30
2019-03-05T01:53:25.056Z,4.90
2019-03-05T01:54:24.939Z,4.50
2019-03-05T01:55:24.862Z,4.50
2019-03-05T01:56:24.810Z,4.40
2019-03-05T01:57:24.737Z,4.20
2019-03-05T01:58:24.722Z,3.90
2019-03-05T01:59:24.584Z,4.10
2019-03-05T02:00:24.536Z,4.40
2019-03-05T02:01:24.455Z,4.20
2019-03-05T02:02:24.386Z,4.10
2019-03-05T02:03:24.321Z,4.60
2019-03-05T02:04:24.232Z,4.30
2019-03-05T02:05:24.166Z,4.20
2019-03-05T02:06:24.126Z,3.90
2019-03-05T02:07:24.027Z,4.30
2019-03-05T02:08:23.974Z,4.30
2019-03-05T02:09:23.909Z,3.80
2019-03-05T02:10:23.829Z,4.10
2019-03-05T02:11:23.754Z,4.30
2019-03-05T02:12:23.675Z,4.00
2019-03-05T02:13:23.613Z,4.00
2019-03-05T02:14:23.549Z,4.10
2019-03-05T02:15:23.479Z,4.00
2019-03-05T02:16:23.395Z,4.20
2019-03-05T02:17:23.321Z,4.30
2019-03-05T02:18:23.299Z,3.90
2019-03-05T02:19:23.187Z,4.50
2019-03-05T02:20:23.132Z,4.10
2019-03-05T02:21:23.057Z,4.60
2019-03-05T02:22:22.988Z,4.30
2019-03-05T02:23:22.923Z,4.30
2019-03-05T02:24:22.842Z,4.40
2019-03-05T02:25:22.765Z,3.80
2019-03-05T02:26:22.701Z,4.40
2019-03-05T02:27:22.621Z,3.80
2019-03-05T02:28:22.565Z,4.40
2019-03-05T02:29:22.499Z,3.90
2019-03-05T02:30:22.418Z,4.30
2019-03-05T02:31:22.345Z,4.20
2019-03-05T02:32:22.293Z,4.20
2019-03-05T02:33:22.229Z,4.10
2019-03-05T02:34:22.151Z,4.20
2019-03-05T02:35:22.084Z,4.40
2019-03-05T02:36:21.998Z,4.20
2019-03-05T02:37:21.922Z,4.50
2019-03-05T02:38:21.864Z,4.10
2019-03-05T02:39:21.785Z,4.30
2019-03-05T02:40:21.733Z,4.00
2019-03-05T02:41:21.661Z,4.00
2019-03-05T02:42:21.585Z,4.30
2019-03-05T02:43:21.524Z,4.10
2019-03-05T02:44:21.429Z,4.10
2019-03-05T02:45:21.363Z,4.50
2019-03-05T02:46:21.315Z,4.20
2019-03-05T02:47:21.236Z,4.00
2019-03-05T02:48:21.154Z,4.10
2019-03-05T02:49:21.085Z,4.50
2019-03-05T02:50:21.023Z,4.30
2019-03-05T02:51:20.942Z,4.40
2019-03-05T02:52:20.889Z,3.90
2019-03-05T02:53:20.865Z,3.90
2019-03-05T02:54:20.738Z,4.40
2019-03-05T02:55:20.659Z,4.50
2019-03-05T02:56:20.600Z,4.10
2019-03-05T02:57:20.533Z,4.20
2019-03-05T02:58:20.464Z,4.10
2019-03-05T02:59:20.393Z,4.20
2019-03-05T03:00:20.313Z,4.30
2019-03-05T03:01:20.246Z,4.30
2019-03-05T03:02:20.229Z,4.40
2019-03-05T03:03:20.113Z,4.40
2019-03-05T03:04:20.034Z,4.00
2019-03-05T03:05:19.973Z,5.00
2019-03-05T03:06:19.888Z,5.40
2019-03-05T03:07:19.827Z,4.90
2019-03-05T03:08:19.765Z,4.60
2019-03-05T03:09:19.694Z,4.40
2019-03-05T03:10:19.622Z,4.30
2019-03-05T03:11:19.551Z,4.40
2019-03-05T03:12:19.470Z,4.60
2019-03-05T03:13:19.401Z,4.40
2019-03-05T03:14:19.334Z,4.20
2019-03-05T03:15:19.259Z,3.90
2019-03-05T03:16:19.202Z,4.30
2019-03-05T03:17:19.132Z,4.30
2019-03-05T03:18:19.049Z,4.50
2019-03-05T03:19:18.976Z,4.40
2019-03-05T03:20:18.964Z,4.20
2019-03-05T03:21:18.845Z,4.80
2019-03-05T03:22:18.772Z,4.10
2019-03-05T03:23:18.704Z,4.20
2019-03-05T03:24:18.648Z,4.50
2019-03-05T03:25:18.561Z,4.30
2019-03-05T03:26:18.484Z,4.50
2019-03-05T03:27:18.415Z,4.30
2019-03-05T03:28:18.356Z,4.30
2019-03-05T03:29:18.292Z,4.50
2019-03-05T03:30:18.319Z,4.10
2019-03-05T03:31:18.141Z,4.60
2019-03-05T03:32:18.059Z,4.30
2019-03-05T03:33:17.993Z,4.20
2019-03-05T03:34:17.946Z,4.30
2019-03-05T03:35:17.858Z,4.40
2019-03-05T03:36:17.817Z,4.40
2019-03-05T03:37:17.713Z,4.00
2019-03-05T03:38:17.642Z,4.50
2019-03-05T03:39:17.564Z,4.20
2019-03-05T03:40:17.506Z,4.10
2019-03-05T03:41:17.444Z,4.60
2019-03-05T03:42:17.392Z,4.00
2019-03-05T03:43:17.303Z,4.10
2019-03-05T03:44:17.225Z,4.10
2019-03-05T03:45:17.150Z,4.20
2019-03-05T03:46:17.074Z,4.10
2019-03-05T03:47:17.050Z,4.20
2019-03-05T03:48:16.942Z,4.60
2019-03-05T03:49:16.871Z,4.40
2019-03-05T03:50:16.796Z,4.30
2019-03-05T03:51:16.726Z,4.20
2019-03-05T03:52:16.661Z,4.30
2019-03-05T03:53:16.591Z,4.10
2019-03-05T03:54:16.543Z,4.10
2019-03-05T03:55:16.451Z,4.20
2019-03-05T03:56:16.373Z,4.50
2019-03-05T03:57:16.299Z,4.50
2019-03-05T03:58:16.280Z,4.50
2019-03-05T03:59:16.167Z,4.40
2019-03-05T04:00:16.081Z,4.20
2019-03-05T04:01:16.013Z,4.60
2019-03-05T04:02:15.951Z,4.50
2019-03-05T04:03:15.874Z,4.40
2019-03-05T04:04:15.816Z,4.20
2019-03-05T04:05:15.743Z,4.20
2019-03-05T04:06:15.674Z,4.10
2019-03-05T04:07:15.590Z,4.00
2019-03-05T04:08:15.542Z,4.50
2019-03-05T04:09:15.456Z,4.30
2019-03-05T04:10:15.397Z,4.60
2019-03-05T04:11:15.331Z,4.30
2019-03-05T04:12:15.240Z,4.60
2019-03-05T04:13:15.167Z,4.10
2019-03-05T04:14:15.103Z,4.70
2019-03-05T04:15:15.049Z,4.70
2019-03-05T04:16:14.968Z,4.80
2019-03-05T04:17:14.896Z,4.50
2019-03-05T04:18:14.827Z,4.40
2019-03-05T04:19:14.779Z,4.80
2019-03-05T04:20:14.673Z,4.40
2019-03-05T04:21:14.601Z,4.50
2019-03-05T04:22:14.549Z,4.60
2019-03-05T04:23:14.474Z,4.60
2019-03-05T04:24:14.470Z,4.70
2019-03-05T04:25:14.322Z,4.70
2019-03-05T04:26:14.259Z,4.60
2019-03-05T04:27:14.177Z,5.10
2019-03-05T04:28:14.115Z,4.30
2019-03-05T04:29:14.045Z,4.50
2019-03-05T04:30:13.973Z,4.90
2019-03-05T04:31:13.907Z,4.30
2019-03-05T04:32:13.829Z,4.50
2019-03-05T04:33:13.755Z,4.60
2019-03-05T04:34:13.689Z,4.70
2019-03-05T04:35:13.617Z,4.70
2019-03-05T04:36:13.560Z,4.70
2019-03-05T04:37:13.482Z,4.60
2019-03-05T04:38:13.400Z,4.20
2019-03-05T04:39:13.405Z,4.00
2019-03-05T04:40:13.277Z,4.30
2019-03-05T04:41:13.195Z,4.10
2019-03-05T04:42:13.131Z,4.30
2019-03-05T04:43:13.061Z,4.30
2019-03-05T04:44:12.976Z,4.10
2019-03-05T04:45:12.902Z,4.30
2019-03-05T04:46:12.862Z,4.40
2019-03-05T04:47:12.760Z,4.70
2019-03-05T04:48:12.708Z,4.70
2019-03-05T04:49:12.633Z,4.50
2019-03-05T04:50:12.565Z,4.60
2019-03-05T04:51:12.507Z,4.40
2019-03-05T04:52:12.412Z,4.50
2019-03-05T04:53:12.340Z,4.50
2019-03-05T04:54:12.290Z,5.10
2019-03-05T04:55:12.206Z,4.90
2019-03-05T04:56:12.124Z,4.50
2019-03-05T04:57:12.057Z,4.50
2019-03-05T04:58:11.984Z,5.00
2019-03-05T04:59:11.914Z,5.10
2019-03-05T05:00:11.854Z,5.10
2019-03-05T05:01:11.787Z,5.00
2019-03-05T05:02:11.696Z,5.00
2019-03-05T05:03:11.632Z,5.10
2019-03-05T05:04:11.568Z,5.20
2019-03-05T05:05:11.501Z,4.70
2019-03-05T05:06:11.427Z,5.20
2019-03-05T05:07:11.357Z,5.00
2019-03-05T05:08:11.275Z,5.20
2019-03-05T05:09:11.198Z,5.20
2019-03-05T05:10:11.140Z,5.10
2019-03-05T05:11:11.119Z,5.10
2019-03-05T05:12:10.986Z,5.10
2019-03-05T05:13:10.924Z,5.10
2019-03-05T05:14:10.844Z,4.90
2019-03-05T05:15:10.768Z,5.00
2019-03-05T05:16:10.716Z,5.60
2019-03-05T05:17:10.644Z,5.50
2019-03-05T05:18:10.572Z,5.50
2019-03-05T05:19:10.532Z,5.50
2019-03-05T05:20:10.414Z,6.70
2019-03-05T05:21:10.354Z,7.20
2019-03-05T05:22:10.270Z,7.20
2019-03-05T05:23:10.200Z,6.70
2019-03-05T05:24:10.142Z,6.80
2019-03-05T05:25:10.085Z,7.10
2019-03-05T05:26:09.993Z,6.70
2019-03-05T05:27:09.918Z,6.30
2019-03-05T05:28:09.854Z,6.80
2019-03-05T05:29:09.787Z,6.80
2019-03-05T05:30:09.724Z,6.40
2019-03-05T05:31:09.641Z,6.20
2019-03-05T05:32:09.560Z,6.30
2019-03-05T05:33:09.484Z,6.20
2019-03-05T05:34:09.429Z,6.30
2019-03-05T05:35:09.361Z,5.90
2019-03-05T05:36:09.270Z,5.80
2019-03-05T05:37:09.196Z,6.10
2019-03-05T05:38:09.137Z,5.70
2019-03-05T05:39:09.058Z,5.70
2019-03-05T05:40:08.998Z,5.90
2019-03-05T05:41:08.925Z,5.90
2019-03-05T05:42:08.839Z,6.10
2019-03-05T05:43:08.772Z,6.30
2019-03-05T05:44:08.713Z,6.30
2019-03-05T05:45:08.647Z,6.20
2019-03-05T05:46:08.565Z,6.00
2019-03-05T05:47:08.493Z,5.70
2019-03-05T05:48:08.420Z,6.00
2019-03-05T05:49:08.344Z,6.00
2019-03-05T05:50:08.305Z,6.20
2019-03-05T05:51:08.196Z,5.60
2019-03-05T05:52:08.137Z,5.50
2019-03-05T05:53:08.071Z,5.60
2019-03-05T05:54:07.993Z,5.70
2019-03-05T05:55:07.921Z,6.00
2019-03-05T05:56:07.839Z,6.10
2019-03-05T05:57:07.794Z,6.30
2019-03-05T05:58:07.711Z,6.10
2019-03-05T05:59:07.635Z,5.40
2019-03-05T06:00:07.552Z,6.80
2019-03-05T06:01:07.478Z,6.50
2019-03-05T06:02:07.412Z,5.80
2019-03-05T06:03:07.354Z,6.00
2019-03-05T06:04:07.280Z,6.40
2019-03-05T06:05:07.216Z,6.30
2019-03-05T06:06:07.129Z,6.50
2019-03-05T06:07:07.054Z,7.20
2019-03-05T06:08:06.999Z,7.40
2019-03-05T06:09:06.925Z,7.90
2019-03-05T06:10:06.889Z,7.70
2019-03-05T06:11:06.782Z,7.70
2019-03-05T06:12:06.698Z,7.70
2019-03-05T06:13:06.622Z,8.70
2019-03-05T06:14:06.609Z,8.50
2019-03-05T06:15:06.496Z,9.00
2019-03-05T06:16:06.412Z,8.10
2019-03-05T06:17:06.342Z,7.60
2019-03-05T06:18:06.270Z,8.30
2019-03-05T06:19:06.226Z,8.60
2019-03-05T06:20:06.141Z,8.30
2019-03-05T06:21:06.066Z,8.00
2019-03-05T06:22:06.013Z,9.00
2019-03-05T06:23:05.928Z,8.60
2019-03-05T06:24:05.844Z,9.10
2019-03-05T06:25:05.773Z,9.30
2019-03-05T06:26:08.570Z,8.40
2019-03-05T06:27:05.626Z,8.50
2019-03-05T06:28:05.566Z,8.50
2019-03-05T06:29:05.493Z,8.40
2019-03-05T06:30:05.418Z,8.30
2019-03-05T06:31:05.352Z,7.70
2019-03-05T06:32:05.288Z,7.70
2019-03-05T06:33:05.213Z,7.50
2019-03-05T06:34:05.136Z,7.40
2019-03-05T06:35:05.075Z,7.00
2019-03-05T06:36:04.991Z,6.90
2019-03-05T06:37:04.914Z,6.80
2019-03-05T06:38:04.844Z,7.10
2019-03-05T06:39:04.772Z,7.50
2019-03-05T06:40:04.712Z,7.10
2019-03-05T06:41:04.665Z,6.60
2019-03-05T06:42:04.567Z,6.80
2019-03-05T06:43:04.499Z,6.40
2019-03-05T06:44:04.422Z,6.90
2019-03-05T06:45:04.344Z,6.90
2019-03-05T06:46:04.281Z,7.20
2019-03-05T06:47:04.210Z,7.40
2019-03-05T06:48:04.134Z,6.80
2019-03-05T06:49:04.054Z,7.60
2019-03-05T06:50:03.998Z,7.10
2019-03-05T06:51:03.913Z,7.50
2019-03-05T06:52:03.879Z,7.60
2019-03-05T06:53:03.788Z,7.30
2019-03-05T06:54:03.706Z,7.30
2019-03-05T06:55:03.633Z,8.10
2019-03-05T06:56:03.544Z,7.90
2019-03-05T06:57:03.477Z,7.40
2019-03-05T06:58:03.404Z,7.80
2019-03-05T06:59:03.326Z,7.70
2019-03-05T07:00:03.273Z,8.20
2019-03-05T07:01:03.202Z,8.10
2019-03-05T07:02:03.114Z,8.00
2019-03-05T07:03:03.041Z,8.00
2019-03-05T07:04:02.979Z,7.80
2019-03-05T07:05:02.909Z,8.50
2019-03-05T07:06:02.842Z,8.30
2019-03-05T07:07:02.761Z,7.90
2019-03-05T07:08:02.681Z,8.10
2019-03-05T07:09:02.617Z,7.80
2019-03-05T07:10:02.547Z,8.60
2019-03-05T07:11:02.476Z,8.50
2019-03-05T07:12:02.390Z,8.00
2019-03-05T07:13:02.316Z,8.40
2019-03-05T07:14:02.245Z,8.00
2019-03-05T07:15:02.220Z,7.80
2019-03-05T07:16:02.111Z,7.80
2019-03-05T07:17:02.043Z,8.10
2019-03-05T07:18:01.955Z,7.40
2019-03-05T07:19:01.883Z,7.40
2019-03-05T07:20:01.818Z,7.60
2019-03-05T07:21:01.752Z,7.90
2019-03-05T07:22:01.720Z,7.90
2019-03-05T07:23:01.610Z,8.40
2019-03-05T07:24:01.525Z,7.50
2019-03-05T07:25:01.448Z,8.00
2019-03-05T07:26:01.373Z,7.10
2019-03-05T07:27:01.307Z,7.80
2019-03-05T07:28:01.246Z,7.10
2019-03-05T07:29:01.169Z,7.70
2019-03-05T07:30:01.100Z,8.30
2019-03-05T07:31:01.059Z,7.50
2019-03-05T07:32:00.944Z,7.80
2019-03-05T07:33:00.902Z,7.90
2019-03-05T07:34:00.811Z,8.00
2019-03-05T07:35:00.737Z,8.00
2019-03-05T07:36:00.650Z,7.90
2019-03-05T07:37:00.584Z,7.40
2019-03-05T07:38:00.512Z,7.60
2019-03-05T07:39:00.443Z,7.30
2019-03-05T07:40:00.409Z,7.40
2019-03-05T07:41:00.303Z,7.30
2019-03-05T07:42:00.230Z,7.20
2019-03-05T07:43:00.168Z,7.30
2019-03-05T07:44:00.083Z,7.90
2019-03-05T07:45:00.006Z,8.00
2019-03-05T07:45:59.952Z,7.60
2019-03-05T07:46:59.897Z,7.30
2019-03-05T07:47:59.804Z,7.90
2019-03-05T07:48:59.735Z,7.60
2019-03-05T07:49:59.648Z,7.10
2019-03-05T07:50:59.573Z,7.20
2019-03-05T07:51:59.515Z,6.90
2019-03-05T07:52:59.445Z,7.70
2019-03-05T07:53:59.369Z,7.10
2019-03-05T07:54:59.301Z,6.90
2019-03-05T07:55:59.252Z,6.90
2019-03-05T07:56:59.146Z,7.10
2019-03-05T07:57:59.079Z,7.20
2019-03-05T07:58:59.028Z,7.60
2019-03-05T07:59:58.946Z,6.30
2019-03-05T08:00:58.874Z,7.50
2019-03-05T08:01:58.810Z,7.00
2019-03-05T08:02:58.731Z,7.20
2019-03-05T08:03:58.652Z,6.80
2019-03-05T08:04:58.578Z,7.20
2019-03-05T08:05:58.525Z,7.40
2019-03-05T08:06:58.448Z,7.40
2019-03-05T08:07:58.372Z,7.50
2019-03-05T08:08:58.297Z,7.70
2019-03-05T08:09:58.224Z,6.70
2019-03-05T08:10:58.152Z,7.80
2019-03-05T08:11:58.096Z,7.40
2019-03-05T08:12:58.026Z,7.80
2019-03-05T08:13:57.945Z,7.40
2019-03-05T08:14:57.866Z,7.60
2019-03-05T08:16:02.410Z,7.60
2019-03-05T08:16:57.740Z,7.20
2019-03-05T08:17:57.672Z,7.50
2019-03-05T08:18:57.627Z,7.20
2019-03-05T08:19:57.513Z,7.30
2019-03-05T08:20:57.445Z,7.60
2019-03-05T08:21:57.385Z,8.00
2019-03-05T08:22:57.314Z,7.40
2019-03-05T08:23:57.235Z,7.30
2019-03-05T08:24:57.161Z,7.80
2019-03-05T08:25:57.093Z,8.40
2019-03-05T08:26:57.026Z,7.70
2019-03-05T08:27:56.965Z,7.70
2019-03-05T08:28:56.895Z,7.70
2019-03-05T08:29:56.850Z,7.40
2019-03-05T08:30:56.752Z,7.10
2019-03-05T08:31:56.668Z,7.60
2019-03-05T08:32:56.606Z,7.40
2019-03-05T08:33:56.541Z,7.80
2019-03-05T08:34:56.456Z,7.00
2019-03-05T08:35:56.405Z,6.90
2019-03-05T08:36:56.333Z,7.30
2019-03-05T08:37:56.253Z,6.40
2019-03-05T08:38:56.209Z,7.30
2019-03-05T08:39:56.128Z,7.10
2019-03-05T08:40:56.052Z,7.40
2019-03-05T08:41:55.987Z,7.40
2019-03-05T08:42:55.932Z,7.10
2019-03-05T08:43:55.840Z,7.00
2019-03-05T08:44:55.765Z,7.60
2019-03-05T08:45:55.695Z,7.10
2019-03-05T08:46:55.624Z,7.80
2019-03-05T08:47:55.571Z,7.00
2019-03-05T08:48:55.495Z,8.30
2019-03-05T08:49:55.430Z,7.80
2019-03-05T08:50:55.357Z,7.30
2019-03-05T08:51:55.271Z,7.80
2019-03-05T08:52:55.218Z,7.30
2019-03-05T08:53:55.149Z,7.50
2019-03-05T08:54:55.077Z,7.70
2019-03-05T08:55:54.995Z,7.80
2019-03-05T08:56:54.927Z,7.30
2019-03-05T08:57:54.857Z,7.90
2019-03-05T08:58:54.786Z,7.50
2019-03-05T08:59:54.731Z,7.30
2019-03-05T09:00:54.661Z,7.40
2019-03-05T09:01:54.590Z,7.90
2019-03-05T09:02:54.514Z,7.60
2019-03-05T09:03:54.466Z,7.60
2019-03-05T09:04:54.367Z,7.40
2019-03-05T09:05:54.300Z,7.70
2019-03-05T09:06:54.227Z,7.80
2019-03-05T09:07:54.174Z,7.70
2019-03-05T09:08:54.102Z,7.70
2019-03-05T09:09:54.023Z,7.40
2019-03-05T09:10:53.947Z,7.50
2019-03-05T09:11:53.911Z,7.70
2019-03-05T09:12:53.830Z,7.30
2019-03-05T09:13:53.753Z,7.70
2019-03-05T09:14:53.686Z,7.80
2019-03-05T09:15:53.601Z,8.20
2019-03-05T09:16:53.540Z,7.90
2019-03-05T09:17:53.496Z,7.90
2019-03-05T09:18:53.409Z,8.00
2019-03-05T09:19:53.329Z,8.30
2019-03-05T09:20:53.260Z,8.10
2019-03-05T09:21:53.193Z,7.80
2019-03-05T09:22:53.123Z,8.30
2019-03-05T09:23:53.069Z,8.70
2019-03-05T09:24:52.997Z,7.40
2019-03-05T09:25:52.911Z,7.20
2019-03-05T09:26:52.847Z,8.20
2019-03-05T09:27:52.804Z,7.60
2019-03-05T09:28:52.725Z,7.80
2019-03-05T09:29:52.651Z,8.20
2019-03-05T09:30:52.580Z,7.30
2019-03-05T09:31:52.505Z,7.10
2019-03-05T09:32:52.432Z,7.20
2019-03-05T09:33:52.367Z,6.60
2019-03-05T09:34:52.297Z,7.30
2019-03-05T09:35:52.238Z,7.30
2019-03-05T09:36:52.167Z,7.10
2019-03-05T09:37:52.105Z,7.50
2019-03-05T09:38:52.029Z,6.60
2019-03-05T09:39:51.953Z,6.70
2019-03-05T09:40:51.883Z,7.50
2019-03-05T09:41:51.829Z,6.50
2019-03-05T09:42:51.754Z,6.40
2019-03-05T09:43:51.675Z,6.40
2019-03-05T09:44:51.611Z,6.70
2019-03-05T09:45:51.541Z,6.60
2019-03-05T09:46:51.473Z,6.10
2019-03-05T09:47:51.418Z,6.60
2019-03-05T09:48:51.348Z,6.50
2019-03-05T09:49:51.268Z,6.50
2019-03-05T09:50:51.199Z,6.60
2019-03-05T09:51:51.143Z,6.10
2019-03-05T09:52:55.043Z,6.10
2019-03-05T09:53:51.006Z,6.70
2019-03-05T09:54:50.936Z,6.60
2019-03-05T09:55:50.857Z,6.00
2019-03-05T09:56:50.789Z,6.50
2019-03-05T09:57:50.732Z,6.70
2019-03-05T09:58:50.662Z,5.90
2019-03-05T09:59:50.601Z,6.50
2019-03-05T10:00:50.535Z,6.40
2019-03-05T10:01:50.445Z,5.80
2019-03-05T10:02:50.377Z,6.30
2019-03-05T10:03:50.326Z,6.60
2019-03-05T10:04:50.253Z,6.70
2019-03-05T10:05:50.189Z,6.70
2019-03-05T10:06:50.120Z,6.50
2019-03-05T10:07:50.040Z,6.90
2019-03-05T10:08:49.971Z,7.30
2019-03-05T10:09:49.907Z,8.20
2019-03-05T10:10:49.837Z,7.50
2019-03-05T10:11:56.275Z,6.80
2019-03-05T10:12:49.714Z,6.40
2019-03-05T10:13:49.633Z,6.40
2019-03-05T10:14:49.573Z,6.40
2019-03-05T10:15:49.509Z,6.50
2019-03-05T10:16:49.442Z,6.60
2019-03-05T10:17:50.147Z,6.50
2019-03-05T10:18:49.305Z,6.60
2019-03-05T10:19:49.243Z,6.20
2019-03-05T10:20:49.157Z,6.50
2019-03-05T10:21:49.155Z,7.00
2019-03-05T10:22:49.038Z,6.20
2019-03-05T10:23:48.966Z,6.70
2019-03-05T10:24:48.881Z,6.40
2019-03-05T10:25:48.821Z,5.80
2019-03-05T10:26:48.749Z,6.40
2019-03-05T10:27:48.721Z,6.40
2019-03-05T10:28:48.626Z,6.40
2019-03-05T10:29:48.543Z,6.60
2019-03-05T10:30:48.478Z,6.50
2019-03-05T10:31:48.420Z,6.60
2019-03-05T10:32:48.351Z,7.10
2019-03-05T10:33:48.286Z,6.00
2019-03-05T10:34:48.214Z,6.20
2019-03-05T10:35:48.136Z,6.50
2019-03-05T10:36:48.072Z,6.80
2019-03-05T10:37:48.048Z,6.80
2019-03-05T10:38:56.845Z,6.80
2019-03-05T10:39:47.878Z,6.60
2019-03-05T10:40:47.810Z,6.90
2019-03-05T10:41:47.739Z,7.30
2019-03-05T10:42:47.676Z,7.40
2019-03-05T10:43:47.600Z,7.30
2019-03-05T10:44:47.531Z,7.30
2019-03-05T10:45:47.474Z,8.20
2019-03-05T10:46:47.404Z,7.50
2019-03-05T10:47:47.325Z,7.30
2019-03-05T10:48:47.260Z,7.90
2019-03-05T10:49:47.195Z,7.90
2019-03-05T10:50:47.119Z,8.50
2019-03-05T10:51:47.070Z,8.20
2019-03-05T10:52:47.002Z,8.00
2019-03-05T10:53:46.987Z,8.60
2019-03-05T10:54:46.870Z,7.70
2019-03-05T10:55:46.790Z,8.40
2019-03-05T10:56:46.718Z,9.00
2019-03-05T10:57:46.654Z,9.10
2019-03-05T10:58:46.579Z,8.80
2019-03-05T10:59:46.532Z,9.20
2019-03-05T11:00:46.485Z,9.50
2019-03-05T11:01:46.379Z,9.40
2019-03-05T11:02:46.318Z,9.40
2019-03-05T11:03:46.260Z,9.90
2019-03-05T11:04:46.213Z,9.20
2019-03-05T11:05:46.119Z,9.10
2019-03-05T11:06:46.054Z,9.40
2019-03-05T11:07:45.973Z,9.10
2019-03-05T11:08:45.909Z,9.40
2019-03-05T11:09:45.835Z,9.30
2019-03-05T11:10:45.772Z,9.00
2019-03-05T11:11:45.721Z,8.60
2019-03-05T11:12:45.649Z,8.30
2019-03-05T11:13:45.580Z,7.90
2019-03-05T11:14:45.501Z,8.50
2019-03-05T11:15:45.431Z,8.60
2019-03-05T11:16:45.378Z,8.20
2019-03-05T11:17:45.308Z,8.00
2019-03-05T11:18:45.229Z,7.70
2019-03-05T11:19:45.160Z,7.20
2019-03-05T11:20:45.104Z,7.60
2019-03-05T11:21:45.023Z,7.90
2019-03-05T11:22:44.963Z,7.30
2019-03-05T11:23:44.898Z,7.50
2019-03-05T11:24:44.823Z,6.80
2019-03-05T11:25:44.754Z,7.00
2019-03-05T11:26:44.698Z,6.80
2019-03-05T11:27:44.629Z,6.90
2019-03-05T11:28:44.566Z,6.90
2019-03-05T11:29:44.493Z,6.50
2019-03-05T11:30:44.413Z,6.40
2019-03-05T11:31:44.347Z,7.00
2019-03-05T11:32:44.294Z,6.40
2019-03-05T11:33:44.232Z,6.50
2019-03-05T11:34:44.146Z,6.30
2019-03-05T11:35:44.084Z,5.90
2019-03-05T11:36:44.023Z,5.80
2019-03-05T11:37:43.949Z,6.10
2019-03-05T11:38:43.894Z,5.90
2019-03-05T11:39:43.819Z,5.80
2019-03-05T11:40:43.754Z,5.60
2019-03-05T11:41:43.687Z,5.70
2019-03-05T11:42:43.607Z,5.30
2019-03-05T11:43:43.541Z,5.90
2019-03-05T11:44:55.751Z,5.40
2019-03-05T11:45:43.409Z,5.00
2019-03-05T11:46:43.352Z,5.60
2019-03-05T11:47:43.278Z,5.60
2019-03-05T11:48:43.215Z,5.50
2019-03-05T11:49:43.137Z,5.70
2019-03-05T11:50:43.088Z,5.40
2019-03-05T11:51:43.019Z,5.10
2019-03-05T11:52:42.990Z,5.30
2019-03-05T11:53:42.880Z,5.20
2019-03-05T11:54:42.805Z,4.90
2019-03-05T11:55:42.735Z,5.20
2019-03-05T11:56:42.680Z,5.20
2019-03-05T11:57:42.618Z,5.00
2019-03-05T11:58:42.535Z,4.40
2019-03-05T11:59:42.470Z,5.50
2019-03-05T12:00:42.397Z,5.00
2019-03-05T12:01:42.403Z,5.50
2019-03-05T12:02:42.277Z,5.40
2019-03-05T12:03:42.215Z,5.40
2019-03-05T12:04:42.132Z,5.20
2019-03-05T12:05:42.067Z,5.40
2019-03-05T12:06:42.007Z,4.60
2019-03-05T12:07:41.941Z,4.70
2019-03-05T12:08:41.875Z,4.80
2019-03-05T12:09:41.804Z,4.80
2019-03-05T12:10:41.724Z,5.20
2019-03-05T12:11:41.656Z,5.80
2019-03-05T12:12:41.595Z,5.60
2019-03-05T12:13:41.526Z,5.70
2019-03-05T12:14:41.473Z,5.90
2019-03-05T12:15:41.399Z,6.10
2019-03-05T12:16:41.785Z,5.80
2019-03-05T12:17:41.263Z,5.90
2019-03-05T12:18:41.188Z,5.60
2019-03-05T12:19:41.172Z,5.50
2019-03-05T12:20:41.066Z,5.00
2019-03-05T12:21:40.996Z,4.70
2019-03-05T12:22:40.913Z,4.90
2019-03-05T12:23:46.806Z,4.90
2019-03-05T12:24:40.792Z,4.80
2019-03-05T12:25:41.118Z,5.00
2019-03-05T12:26:40.656Z,5.10
2019-03-05T12:27:40.590Z,4.60
2019-03-05T12:28:42.362Z,4.40
2019-03-05T12:29:40.437Z,4.50
2019-03-05T12:30:40.483Z,4.60
2019-03-05T12:31:40.323Z,4.60
2019-03-05T12:32:40.267Z,4.50
2019-03-05T12:33:40.206Z,4.30
2019-03-05T12:34:40.108Z,4.30
2019-03-05T12:35:40.036Z,4.00
2019-03-05T12:36:39.979Z,4.20
2019-03-05T12:37:39.915Z,4.40
2019-03-05T12:38:39.829Z,4.10
2019-03-05T12:39:39.762Z,4.00
2019-03-05T12:40:39.698Z,4.00
2019-03-05T12:41:39.624Z,4.00
2019-03-05T12:42:39.573Z,3.90
2019-03-05T12:43:39.504Z,3.40
2019-03-05T12:44:39.433Z,4.10
2019-03-05T12:45:39.368Z,3.90
2019-03-05T12:46:39.289Z,3.70
2019-03-05T12:47:39.219Z,3.40
2019-03-05T12:48:40.300Z,3.80
2019-03-05T12:49:39.082Z,3.50
2019-03-05T12:50:39.019Z,3.40
2019-03-05T12:51:38.957Z,3.70
2019-03-05T12:52:38.882Z,3.30
2019-03-05T12:53:38.813Z,3.60
2019-03-05T12:54:38.754Z,3.60
2019-03-05T12:55:38.683Z,3.70
2019-03-05T12:56:38.614Z,3.70
2019-03-05T12:57:38.548Z,3.30
2019-03-05T12:58:38.464Z,3.30
2019-03-05T12:59:38.401Z,3.50
2019-03-05T13:00:38.328Z,4.20
2019-03-05T13:01:38.262Z,4.00
2019-03-05T13:02:38.209Z,3.70
2019-03-05T13:03:38.142Z,3.80
2019-03-05T13:04:38.065Z,3.90
2019-03-05T13:05:38.001Z,4.00
2019-03-05T13:06:37.919Z,3.30
2019-03-05T13:07:37.852Z,3.50
2019-03-05T13:08:37.799Z,3.90
2019-03-05T13:09:37.729Z,4.20
2019-03-05T13:10:37.795Z,3.70
2019-03-05T13:11:37.578Z,3.90
2019-03-05T13:12:40.044Z,3.80
2019-03-05T13:13:37.540Z,3.90
2019-03-05T13:14:38.347Z,3.30
2019-03-05T13:15:37.323Z,3.60
2019-03-05T13:16:39.455Z,3.50
2019-03-05T13:17:37.182Z,4.00